PWSweather.com
Personal Weather Stations
Station Observations
ANTHEMNP
Anthem North Parkside, Anthem, AZ 85086

Anthem North ParksideAnthem, AZ 85086

Lat: 33.876464, Lon: -112.13861199999997

Elevation: 1930

Station Type: Davis Vantage Vue with Pro 2 console

http://www.azjerry.com/ANPW/wxindex.php

High Low Average
Temperature 93.9°F34.4°C 78.4°F25.8°C 85.3°F29.6°C
Dew Point 68.0°F20.0°C 48.0°F8.9°C 61.2°F16.2°C
Winds 7.3 mph 11.7 kmh Calm Calm 3.0 mph SSW4.8 kmh SSW
Wind Gusts 17.0 mph27.4 kmh -- 8.0 mph12.9 kmh
Humidity 65% 26% 46%
Pressure 29.87 in1011.5 mb 29.74 in1007.1 mb -
Precipitation 0.00 in0.0 mm - -
Hour Temp Dew Point Humidity Winds Wind Gusts Pressure Precip Precip Rate Daily Precip Total
12:00 AM 84.0°F28.9°C 64.0°F17.8°C 51% 2.2 mph S3.5 kmh S 7.0 mph11.3 kmh 29.79 in1008.8 mb 0.00 in0.0 mm 0.00 in0.0 mm 0.00 in0.0 mm
12:10 AM 83.8°F28.8°C 64.0°F17.8°C 51% 1.2 mph SSW1.9 kmh SSW 5.0 mph8.0 kmh 29.79 in1008.8 mb 0.00 in0.0 mm 0.00 in0.0 mm 0.00 in0.0 mm
12:20 AM 83.7°F28.7°C 64.0°F17.8°C 52% 1.2 mph SSE1.9 kmh SSE 4.0 mph6.4 kmh 29.79 in1008.8 mb 0.00 in0.0 mm 0.00 in0.0 mm 0.00 in0.0 mm
12:30 AM 83.5°F28.6°C 65.0°F18.3°C 53% 0.9 mph W1.4 kmh W 7.0 mph11.3 kmh 29.79 in1008.8 mb 0.00 in0.0 mm 0.00 in0.0 mm 0.00 in0.0 mm
12:40 AM 83.4°F28.6°C 64.0°F17.8°C 53% 0.4 mph WNW0.6 kmh WNW 3.0 mph4.8 kmh 29.78 in1008.5 mb 0.00 in0.0 mm 0.00 in0.0 mm 0.00 in0.0 mm
12:50 AM 83.3°F28.5°C 65.0°F18.3°C 55% 1.1 mph SSE1.8 kmh SSE 5.0 mph8.0 kmh 29.79 in1008.8 mb 0.00 in0.0 mm 0.00 in0.0 mm 0.00 in0.0 mm
01:00 AM 83.2°F28.4°C 66.0°F18.9°C 56% 2.0 mph SW3.2 kmh SW 7.0 mph11.3 kmh 29.79 in1008.8 mb 0.00 in0.0 mm 0.00 in0.0 mm 0.00 in0.0 mm
01:10 AM 83.1°F28.4°C 66.0°F18.9°C 56% 3.3 mph SW5.3 kmh SW 9.0 mph14.5 kmh 29.79 in1008.8 mb 0.00 in0.0 mm 0.00 in0.0 mm 0.00 in0.0 mm
01:20 AM 82.9°F28.3°C 66.0°F18.9°C 57% 2.6 mph E4.2 kmh E 8.0 mph12.9 kmh 29.79 in1008.8 mb 0.00 in0.0 mm 0.00 in0.0 mm 0.00 in0.0 mm
01:30 AM 82.6°F28.1°C 67.0°F19.4°C 59% 2.2 mph S3.5 kmh S 8.0 mph12.9 kmh 29.79 in1008.8 mb 0.00 in0.0 mm 0.00 in0.0 mm 0.00 in0.0 mm
01:40 AM 82.3°F27.9°C 66.0°F18.9°C 59% 1.5 mph WNW2.4 kmh WNW 6.0 mph9.7 kmh 29.79 in1008.8 mb 0.00 in0.0 mm 0.00 in0.0 mm 0.00 in0.0 mm
01:50 AM 82.0°F27.8°C 66.0°F18.9°C 59% 2.2 mph SW3.5 kmh SW 7.0 mph11.3 kmh 29.80 in1009.1 mb 0.00 in0.0 mm 0.00 in0.0 mm 0.00 in0.0 mm
02:00 AM 81.8°F27.7°C 66.0°F18.9°C 59% 1.7 mph SE2.7 kmh SE 6.0 mph9.7 kmh 29.79 in1008.8 mb 0.00 in0.0 mm 0.00 in0.0 mm 0.00 in0.0 mm
02:10 AM 81.5°F27.5°C 66.0°F18.9°C 59% 2.2 mph W3.5 kmh W 6.0 mph9.7 kmh 29.79 in1008.8 mb 0.00 in0.0 mm 0.00 in0.0 mm 0.00 in0.0 mm
02:20 AM 81.3°F27.4°C 66.0°F18.9°C 59% 1.1 mph SSW1.8 kmh SSW 4.0 mph6.4 kmh 29.79 in1008.8 mb 0.00 in0.0 mm 0.00 in0.0 mm 0.00 in0.0 mm
02:30 AM 81.1°F27.3°C 66.0°F18.9°C 60% 0.8 mph WSW1.3 kmh WSW 5.0 mph8.0 kmh 29.79 in1008.8 mb 0.00 in0.0 mm 0.00 in0.0 mm 0.00 in0.0 mm
02:40 AM 81.0°F27.2°C 66.0°F18.9°C 60% 2.0 mph SW3.2 kmh SW 6.0 mph9.7 kmh 29.79 in1008.8 mb 0.00 in0.0 mm 0.00 in0.0 mm 0.00 in0.0 mm
02:50 AM 80.9°F27.2°C 66.0°F18.9°C 60% 1.4 mph SW2.3 kmh SW 7.0 mph11.3 kmh 29.79 in1008.8 mb 0.00 in0.0 mm 0.00 in0.0 mm 0.00 in0.0 mm
03:00 AM 80.8°F27.1°C 66.0°F18.9°C 60% 2.2 mph SW3.5 kmh SW 7.0 mph11.3 kmh 29.79 in1008.8 mb 0.00 in0.0 mm 0.00 in0.0 mm 0.00 in0.0 mm
03:10 AM 80.7°F27.1°C 65.0°F18.3°C 60% 2.2 mph SW3.5 kmh SW 7.0 mph11.3 kmh 29.79 in1008.8 mb 0.00 in0.0 mm 0.00 in0.0 mm 0.00 in0.0 mm
03:20 AM 80.5°F26.9°C 66.0°F18.9°C 61% 2.7 mph SW4.3 kmh SW 6.0 mph9.7 kmh 29.79 in1008.8 mb 0.00 in0.0 mm 0.00 in0.0 mm 0.00 in0.0 mm
03:30 AM 80.2°F26.8°C 66.0°F18.9°C 61% 1.8 mph SSW2.9 kmh SSW 6.0 mph9.7 kmh 29.80 in1009.1 mb 0.00 in0.0 mm 0.00 in0.0 mm 0.00 in0.0 mm
03:40 AM 80.2°F26.8°C 65.0°F18.3°C 61% 1.5 mph S2.4 kmh S 4.0 mph6.4 kmh 29.79 in1008.8 mb 0.00 in0.0 mm 0.00 in0.0 mm 0.00 in0.0 mm
03:50 AM 80.1°F26.7°C 65.0°F18.3°C 61% 1.0 mph SW1.6 kmh SW 4.0 mph6.4 kmh 29.79 in1008.8 mb 0.00 in0.0 mm 0.00 in0.0 mm 0.00 in0.0 mm
04:00 AM 80.2°F26.8°C 65.0°F18.3°C 61% 0.7 mph WNW1.1 kmh WNW 3.0 mph4.8 kmh 29.80 in1009.1 mb 0.00 in0.0 mm 0.00 in0.0 mm 0.00 in0.0 mm
04:10 AM 80.1°F26.7°C 65.0°F18.3°C 61% 1.3 mph WNW2.1 kmh WNW 4.0 mph6.4 kmh 29.80 in1009.1 mb 0.00 in0.0 mm 0.00 in0.0 mm 0.00 in0.0 mm
04:20 AM 79.9°F26.6°C 66.0°F18.9°C 62% 1.5 mph NW2.4 kmh NW 5.0 mph8.0 kmh 29.80 in1009.1 mb 0.00 in0.0 mm 0.00 in0.0 mm 0.00 in0.0 mm
04:30 AM 79.8°F26.6°C 66.0°F18.9°C 62% 0.9 mph S1.4 kmh S 3.0 mph4.8 kmh 29.79 in1008.8 mb 0.00 in0.0 mm 0.00 in0.0 mm 0.00 in0.0 mm
04:40 AM 79.7°F26.5°C 65.0°F18.3°C 62% 1.3 mph WNW2.1 kmh WNW 6.0 mph9.7 kmh 29.79 in1008.8 mb 0.00 in0.0 mm 0.00 in0.0 mm 0.00 in0.0 mm
04:50 AM 79.5°F26.4°C 65.0°F18.3°C 62% 1.5 mph WNW2.4 kmh WNW 4.0 mph6.4 kmh 29.79 in1008.8 mb 0.00 in0.0 mm 0.00 in0.0 mm 0.00 in0.0 mm
05:00 AM 79.3°F26.3°C 66.0°F18.9°C 63% 1.4 mph SSW2.3 kmh SSW 3.0 mph4.8 kmh 29.79 in1008.8 mb 0.00 in0.0 mm 0.00 in0.0 mm 0.00 in0.0 mm
05:10 AM 79.1°F26.2°C 65.0°F18.3°C 63% 0.9 mph NW1.4 kmh NW 3.0 mph4.8 kmh 29.79 in1008.8 mb 0.00 in0.0 mm 0.00 in0.0 mm 0.00 in0.0 mm
05:20 AM 78.9°F26.1°C 65.0°F18.3°C 63% 0.7 mph WNW1.1 kmh WNW 3.0 mph4.8 kmh 29.80 in1009.1 mb 0.00 in0.0 mm 0.00 in0.0 mm 0.00 in0.0 mm
05:30 AM 78.7°F25.9°C 65.0°F18.3°C 63% 0.2 mph WSW0.3 kmh WSW 2.0 mph3.2 kmh 29.80 in1009.1 mb 0.00 in0.0 mm 0.00 in0.0 mm 0.00 in0.0 mm
05:40 AM 78.7°F25.9°C 65.0°F18.3°C 63% 0.6 mph SSW1.0 kmh SSW 3.0 mph4.8 kmh 29.81 in1009.5 mb 0.00 in0.0 mm 0.00 in0.0 mm 0.00 in0.0 mm
05:50 AM 78.7°F25.9°C 65.0°F18.3°C 63% 0.3 mph S0.5 kmh S 1.0 mph1.6 kmh 29.81 in1009.5 mb 0.00 in0.0 mm 0.00 in0.0 mm 0.00 in0.0 mm
06:00 AM 78.7°F25.9°C 65.0°F18.3°C 63% 0.4 mph WNW0.6 kmh WNW 3.0 mph4.8 kmh 29.82 in1009.8 mb 0.00 in0.0 mm 0.00 in0.0 mm 0.00 in0.0 mm
06:10 AM 78.7°F25.9°C 65.0°F18.3°C 63% Calm Calm 1.0 mph1.6 kmh 29.82 in1009.8 mb 0.00 in0.0 mm 0.00 in0.0 mm 0.00 in0.0 mm
06:20 AM 78.5°F25.8°C 65.0°F18.3°C 63% Calm Calm 1.0 mph1.6 kmh 29.82 in1009.8 mb 0.00 in0.0 mm 0.00 in0.0 mm 0.00 in0.0 mm
06:30 AM 78.4°F25.8°C 65.0°F18.3°C 64% Calm Calm 1.0 mph1.6 kmh 29.83 in1010.2 mb 0.00 in0.0 mm 0.00 in0.0 mm 0.00 in0.0 mm
06:40 AM 78.6°F25.9°C 65.0°F18.3°C 64% 0.2 mph SSW0.3 kmh SSW 3.0 mph4.8 kmh 29.83 in1010.2 mb 0.00 in0.0 mm 0.00 in0.0 mm 0.00 in0.0 mm
06:50 AM 78.6°F25.9°C 65.0°F18.3°C 63% 0.2 mph SSW0.3 kmh SSW 2.0 mph3.2 kmh 29.83 in1010.2 mb 0.00 in0.0 mm 0.00 in0.0 mm 0.00 in0.0 mm
07:00 AM 78.5°F25.8°C 65.0°F18.3°C 64% Calm Calm 1.0 mph1.6 kmh 29.83 in1010.2 mb 0.00 in0.0 mm 0.00 in0.0 mm 0.00 in0.0 mm
07:10 AM 78.4°F25.8°C 65.0°F18.3°C 63% Calm Calm -- 29.83 in1010.2 mb 0.00 in0.0 mm 0.00 in0.0 mm 0.00 in0.0 mm
07:20 AM 78.6°F25.9°C 65.0°F18.3°C 64% Calm Calm 1.0 mph1.6 kmh 29.84 in1010.5 mb 0.00 in0.0 mm 0.00 in0.0 mm 0.00 in0.0 mm
07:30 AM 79.2°F26.2°C 65.0°F18.3°C 63% 0.6 mph SE1.0 kmh SE 2.0 mph3.2 kmh 29.84 in1010.5 mb 0.00 in0.0 mm 0.00 in0.0 mm 0.00 in0.0 mm
07:40 AM 79.7°F26.5°C 65.0°F18.3°C 61% 0.9 mph SW1.4 kmh SW 3.0 mph4.8 kmh 29.84 in1010.5 mb 0.00 in0.0 mm 0.00 in0.0 mm 0.00 in0.0 mm
07:50 AM 80.3°F26.8°C 66.0°F18.9°C 61% 0.8 mph SW1.3 kmh SW 4.0 mph6.4 kmh 29.85 in1010.8 mb 0.00 in0.0 mm 0.00 in0.0 mm 0.00 in0.0 mm
08:00 AM 81.1°F27.3°C 66.0°F18.9°C 61% 1.2 mph SE1.9 kmh SE 5.0 mph8.0 kmh 29.85 in1010.8 mb 0.00 in0.0 mm 0.00 in0.0 mm 0.00 in0.0 mm
08:10 AM 81.4°F27.4°C 67.0°F19.4°C 61% 1.7 mph SE2.7 kmh SE 5.0 mph8.0 kmh 29.85 in1010.8 mb 0.00 in0.0 mm 0.00 in0.0 mm 0.00 in0.0 mm
08:20 AM 82.0°F27.8°C 67.0°F19.4°C 60% 1.4 mph SE2.3 kmh SE 3.0 mph4.8 kmh 29.86 in1011.2 mb 0.00 in0.0 mm 0.00 in0.0 mm 0.00 in0.0 mm
08:30 AM 82.3°F27.9°C 67.0°F19.4°C 61% 1.4 mph SE2.3 kmh SE 4.0 mph6.4 kmh 29.86 in1011.2 mb 0.00 in0.0 mm 0.00 in0.0 mm 0.00 in0.0 mm
08:40 AM 81.6°F27.6°C 68.0°F20.0°C 63% 2.2 mph SE3.5 kmh SE 7.0 mph11.3 kmh 29.86 in1011.2 mb 0.00 in0.0 mm 0.00 in0.0 mm 0.00 in0.0 mm
08:50 AM 81.0°F27.2°C 68.0°F20.0°C 65% 1.4 mph SE2.3 kmh SE 5.0 mph8.0 kmh 29.87 in1011.5 mb 0.00 in0.0 mm 0.00 in0.0 mm 0.00 in0.0 mm
09:00 AM 80.9°F27.2°C 67.0°F19.4°C 63% 1.9 mph S3.1 kmh S 4.0 mph6.4 kmh 29.87 in1011.5 mb 0.00 in0.0 mm 0.00 in0.0 mm 0.00 in0.0 mm
09:10 AM 80.8°F27.1°C 66.0°F18.9°C 62% 1.7 mph S2.7 kmh S 4.0 mph6.4 kmh 29.87 in1011.5 mb 0.00 in0.0 mm 0.00 in0.0 mm 0.00 in0.0 mm
09:20 AM 82.0°F27.8°C 67.0°F19.4°C 60% 4.2 mph SW6.8 kmh SW 10.0 mph16.1 kmh 29.87 in1011.5 mb 0.00 in0.0 mm 0.00 in0.0 mm 0.00 in0.0 mm
09:30 AM 83.7°F28.7°C 67.0°F19.4°C 57% 3.3 mph S5.3 kmh S 7.0 mph11.3 kmh 29.87 in1011.5 mb 0.00 in0.0 mm 0.00 in0.0 mm 0.00 in0.0 mm
09:40 AM 83.1°F28.4°C 66.0°F18.9°C 57% 4.7 mph SSE7.6 kmh SSE 10.0 mph16.1 kmh 29.87 in1011.5 mb 0.00 in0.0 mm 0.00 in0.0 mm 0.00 in0.0 mm
09:50 AM 82.9°F28.3°C 66.0°F18.9°C 57% 3.9 mph SE6.3 kmh SE 8.0 mph12.9 kmh 29.87 in1011.5 mb 0.00 in0.0 mm 0.00 in0.0 mm 0.00 in0.0 mm
10:00 AM 84.0°F28.9°C 66.0°F18.9°C 55% 4.1 mph SW6.6 kmh SW 12.0 mph19.3 kmh 29.86 in1011.2 mb 0.00 in0.0 mm 0.00 in0.0 mm 0.00 in0.0 mm
10:10 AM 85.1°F29.5°C 66.0°F18.9°C 53% 5.1 mph SSE8.2 kmh SSE 10.0 mph16.1 kmh 29.86 in1011.2 mb 0.00 in0.0 mm 0.00 in0.0 mm 0.00 in0.0 mm
10:20 AM 86.4°F30.2°C 66.0°F18.9°C 51% 4.4 mph SE7.1 kmh SE 10.0 mph16.1 kmh 29.86 in1011.2 mb 0.00 in0.0 mm 0.00 in0.0 mm 0.00 in0.0 mm
10:30 AM 86.4°F30.2°C 66.0°F18.9°C 51% 5.6 mph S9.0 kmh S 14.0 mph22.5 kmh 29.86 in1011.2 mb 0.00 in0.0 mm 0.00 in0.0 mm 0.00 in0.0 mm
10:40 AM 86.1°F30.1°C 65.0°F18.3°C 49% 6.6 mph SSW10.6 kmh SSW 14.0 mph22.5 kmh 29.86 in1011.2 mb 0.00 in0.0 mm 0.00 in0.0 mm 0.00 in0.0 mm
10:50 AM 87.2°F30.7°C 65.0°F18.3°C 48% 5.6 mph SSW9.0 kmh SSW 14.0 mph22.5 kmh 29.86 in1011.2 mb 0.00 in0.0 mm 0.00 in0.0 mm 0.00 in0.0 mm
11:00 AM 86.8°F30.4°C 64.0°F17.8°C 47% 6.9 mph WSW11.1 kmh WSW 15.0 mph24.1 kmh 29.86 in1011.2 mb 0.00 in0.0 mm 0.00 in0.0 mm 0.00 in0.0 mm
11:10 AM 86.1°F30.1°C 64.0°F17.8°C 48% 6.8 mph SSW10.9 kmh SSW 16.0 mph25.7 kmh 29.85 in1010.8 mb 0.00 in0.0 mm 0.00 in0.0 mm 0.00 in0.0 mm
11:20 AM 86.0°F30.0°C 63.0°F17.2°C 46% 5.2 mph SW8.4 kmh SW 10.0 mph16.1 kmh 29.85 in1010.8 mb 0.00 in0.0 mm 0.00 in0.0 mm 0.00 in0.0 mm
11:30 AM 87.4°F30.8°C 63.0°F17.2°C 44% 7.3 mph S11.7 kmh S 15.0 mph24.1 kmh 29.85 in1010.8 mb 0.00 in0.0 mm 0.00 in0.0 mm 0.00 in0.0 mm
11:40 AM 88.8°F31.6°C 64.0°F17.8°C 43% 5.4 mph SW8.7 kmh SW 12.0 mph19.3 kmh 29.85 in1010.8 mb 0.00 in0.0 mm 0.00 in0.0 mm 0.00 in0.0 mm
11:50 AM 88.8°F31.6°C 64.0°F17.8°C 43% 5.5 mph W8.9 kmh W 12.0 mph19.3 kmh 29.84 in1010.5 mb 0.00 in0.0 mm 0.00 in0.0 mm 0.00 in0.0 mm
12:00 PM 89.6°F32.0°C 63.0°F17.2°C 41% 5.3 mph S8.5 kmh S 13.0 mph20.9 kmh 29.84 in1010.5 mb 0.00 in0.0 mm 0.00 in0.0 mm 0.00 in0.0 mm
12:10 PM 89.9°F32.2°C 63.0°F17.2°C 41% 5.0 mph SSW8.0 kmh SSW 10.0 mph16.1 kmh 29.84 in1010.5 mb 0.00 in0.0 mm 0.00 in0.0 mm 0.00 in0.0 mm
12:20 PM 89.4°F31.9°C 63.0°F17.2°C 42% 4.9 mph SSW7.9 kmh SSW 12.0 mph19.3 kmh 29.83 in1010.2 mb 0.00 in0.0 mm 0.00 in0.0 mm 0.00 in0.0 mm
12:30 PM 89.3°F31.8°C 64.0°F17.8°C 43% 4.5 mph SW7.2 kmh SW 10.0 mph16.1 kmh 29.83 in1010.2 mb 0.00 in0.0 mm 0.00 in0.0 mm 0.00 in0.0 mm
12:40 PM 89.0°F31.7°C 64.0°F17.8°C 43% 3.7 mph SE6.0 kmh SE 9.0 mph14.5 kmh 29.83 in1010.2 mb 0.00 in0.0 mm 0.00 in0.0 mm 0.00 in0.0 mm
12:50 PM 88.8°F31.6°C 63.0°F17.2°C 42% 4.7 mph WNW7.6 kmh WNW 12.0 mph19.3 kmh 29.82 in1009.8 mb 0.00 in0.0 mm 0.00 in0.0 mm 0.00 in0.0 mm
01:00 PM 89.4°F31.9°C 63.0°F17.2°C 41% 5.1 mph S8.2 kmh S 12.0 mph19.3 kmh 29.82 in1009.8 mb 0.00 in0.0 mm 0.00 in0.0 mm 0.00 in0.0 mm
01:10 PM 90.9°F32.7°C 63.0°F17.2°C 39% 5.5 mph WSW8.9 kmh WSW 11.0 mph17.7 kmh 29.81 in1009.5 mb 0.00 in0.0 mm 0.00 in0.0 mm 0.00 in0.0 mm
01:20 PM 90.9°F32.7°C 63.0°F17.2°C 40% 4.9 mph SW7.9 kmh SW 15.0 mph24.1 kmh 29.81 in1009.5 mb 0.00 in0.0 mm 0.00 in0.0 mm 0.00 in0.0 mm
01:30 PM 91.4°F33.0°C 62.0°F16.7°C 38% 5.1 mph S8.2 kmh S 13.0 mph20.9 kmh 29.81 in1009.5 mb 0.00 in0.0 mm 0.00 in0.0 mm 0.00 in0.0 mm
01:40 PM 90.7°F32.6°C 63.0°F17.2°C 40% 5.6 mph SW9.0 kmh SW 11.0 mph17.7 kmh 29.80 in1009.1 mb 0.00 in0.0 mm 0.00 in0.0 mm 0.00 in0.0 mm
01:50 PM 91.7°F33.2°C 64.0°F17.8°C 40% 4.2 mph SSE6.8 kmh SSE 10.0 mph16.1 kmh 29.80 in1009.1 mb 0.00 in0.0 mm 0.00 in0.0 mm 0.00 in0.0 mm
02:00 PM 91.1°F32.8°C 62.0°F16.7°C 38% 6.2 mph SSW10.0 kmh SSW 13.0 mph20.9 kmh 29.79 in1008.8 mb 0.00 in0.0 mm 0.00 in0.0 mm 0.00 in0.0 mm
02:10 PM 91.2°F32.9°C 62.0°F16.7°C 38% 4.5 mph E7.2 kmh E 11.0 mph17.7 kmh 29.78 in1008.5 mb 0.00 in0.0 mm 0.00 in0.0 mm 0.00 in0.0 mm
02:20 PM 90.9°F32.7°C 62.0°F16.7°C 38% 3.4 mph S5.5 kmh S 8.0 mph12.9 kmh 29.78 in1008.5 mb 0.00 in0.0 mm 0.00 in0.0 mm 0.00 in0.0 mm
02:30 PM 92.3°F33.5°C 62.0°F16.7°C 36% 5.4 mph S8.7 kmh S 14.0 mph22.5 kmh 29.78 in1008.5 mb 0.00 in0.0 mm 0.00 in0.0 mm 0.00 in0.0 mm
02:40 PM 92.4°F33.6°C 61.0°F16.1°C 35% 5.8 mph ESE9.3 kmh ESE 15.0 mph24.1 kmh 29.78 in1008.5 mb 0.00 in0.0 mm 0.00 in0.0 mm 0.00 in0.0 mm
02:50 PM 92.1°F33.4°C 60.0°F15.6°C 34% 5.2 mph SW8.4 kmh SW 11.0 mph17.7 kmh 29.78 in1008.5 mb 0.00 in0.0 mm 0.00 in0.0 mm 0.00 in0.0 mm
03:00 PM 92.8°F33.8°C 60.0°F15.6°C 33% 3.3 mph SSW5.3 kmh SSW 13.0 mph20.9 kmh 29.77 in1008.1 mb 0.00 in0.0 mm 0.00 in0.0 mm 0.00 in0.0 mm
03:10 PM 93.6°F34.2°C 59.0°F15.0°C 31% 6.2 mph SW10.0 kmh SW 13.0 mph20.9 kmh 29.77 in1008.1 mb 0.00 in0.0 mm 0.00 in0.0 mm 0.00 in0.0 mm
03:20 PM 93.9°F34.4°C 58.0°F14.4°C 30% 5.5 mph SW8.9 kmh SW 14.0 mph22.5 kmh 29.77 in1008.1 mb 0.00 in0.0 mm 0.00 in0.0 mm 0.00 in0.0 mm
03:30 PM 93.0°F33.9°C 58.0°F14.4°C 31% 5.0 mph SSW8.0 kmh SSW 12.0 mph19.3 kmh 29.76 in1007.8 mb 0.00 in0.0 mm 0.00 in0.0 mm 0.00 in0.0 mm
03:40 PM 93.5°F34.2°C 58.0°F14.4°C 30% 5.4 mph S8.7 kmh S 12.0 mph19.3 kmh 29.76 in1007.8 mb 0.00 in0.0 mm 0.00 in0.0 mm 0.00 in0.0 mm
03:50 PM 93.0°F33.9°C 57.0°F13.9°C 30% 7.1 mph SSE11.4 kmh SSE 14.0 mph22.5 kmh 29.76 in1007.8 mb 0.00 in0.0 mm 0.00 in0.0 mm 0.00 in0.0 mm
04:00 PM 93.9°F34.4°C 57.0°F13.9°C 29% 2.9 mph SSW4.7 kmh SSW 11.0 mph17.7 kmh 29.76 in1007.8 mb 0.00 in0.0 mm 0.00 in0.0 mm 0.00 in0.0 mm
04:10 PM 92.7°F33.7°C 57.0°F13.9°C 30% 7.2 mph SW11.6 kmh SW 16.0 mph25.7 kmh 29.76 in1007.8 mb 0.00 in0.0 mm 0.00 in0.0 mm 0.00 in0.0 mm
04:20 PM 92.9°F33.8°C 57.0°F13.9°C 30% 7.1 mph SSW11.4 kmh SSW 17.0 mph27.4 kmh 29.76 in1007.8 mb 0.00 in0.0 mm 0.00 in0.0 mm 0.00 in0.0 mm
04:30 PM 92.9°F33.8°C 56.0°F13.3°C 29% 5.4 mph SSE8.7 kmh SSE 13.0 mph20.9 kmh 29.76 in1007.8 mb 0.00 in0.0 mm 0.00 in0.0 mm 0.00 in0.0 mm
04:40 PM 93.1°F33.9°C 55.0°F12.8°C 28% 4.2 mph S6.8 kmh S 12.0 mph19.3 kmh 29.76 in1007.8 mb 0.00 in0.0 mm 0.00 in0.0 mm 0.00 in0.0 mm
04:50 PM 92.6°F33.7°C 55.0°F12.8°C 28% 6.5 mph SSW10.5 kmh SSW 14.0 mph22.5 kmh 29.76 in1007.8 mb 0.00 in0.0 mm 0.00 in0.0 mm 0.00 in0.0 mm
05:00 PM 92.1°F33.4°C 56.0°F13.3°C 29% 4.8 mph SSW7.7 kmh SSW 11.0 mph17.7 kmh 29.76 in1007.8 mb 0.00 in0.0 mm 0.00 in0.0 mm 0.00 in0.0 mm
05:10 PM 91.9°F33.3°C 55.0°F12.8°C 29% 5.0 mph S8.0 kmh S 10.0 mph16.1 kmh 29.76 in1007.8 mb 0.00 in0.0 mm 0.00 in0.0 mm 0.00 in0.0 mm
05:20 PM 91.8°F33.2°C 55.0°F12.8°C 29% 3.3 mph S5.3 kmh S 9.0 mph14.5 kmh 29.75 in1007.5 mb 0.00 in0.0 mm 0.00 in0.0 mm 0.00 in0.0 mm
05:30 PM 92.2°F33.4°C 55.0°F12.8°C 28% 5.5 mph S8.9 kmh S 13.0 mph20.9 kmh 29.75 in1007.5 mb 0.00 in0.0 mm 0.00 in0.0 mm 0.00 in0.0 mm
05:40 PM 91.6°F33.1°C 55.0°F12.8°C 29% 5.9 mph WSW9.5 kmh WSW 13.0 mph20.9 kmh 29.75 in1007.5 mb 0.00 in0.0 mm 0.00 in0.0 mm 0.00 in0.0 mm
05:50 PM 91.5°F33.1°C 55.0°F12.8°C 29% 4.5 mph S7.2 kmh S 11.0 mph17.7 kmh 29.75 in1007.5 mb 0.00 in0.0 mm 0.00 in0.0 mm 0.00 in0.0 mm
06:00 PM 91.2°F32.9°C 55.0°F12.8°C 29% 4.7 mph S7.6 kmh S 10.0 mph16.1 kmh 29.75 in1007.5 mb 0.00 in0.0 mm 0.00 in0.0 mm 0.00 in0.0 mm
06:10 PM 91.1°F32.8°C 55.0°F12.8°C 29% 4.6 mph SW7.4 kmh SW 9.0 mph14.5 kmh 29.75 in1007.5 mb 0.00 in0.0 mm 0.00 in0.0 mm 0.00 in0.0 mm
06:20 PM 90.8°F32.7°C 54.0°F12.2°C 29% 4.1 mph SSE6.6 kmh SSE 9.0 mph14.5 kmh 29.75 in1007.5 mb 0.00 in0.0 mm 0.00 in0.0 mm 0.00 in0.0 mm
06:30 PM 90.5°F32.5°C 54.0°F12.2°C 29% 4.3 mph SE6.9 kmh SE 9.0 mph14.5 kmh 29.75 in1007.5 mb 0.00 in0.0 mm 0.00 in0.0 mm 0.00 in0.0 mm
06:40 PM 90.3°F32.4°C 53.0°F11.7°C 28% 4.3 mph SW6.9 kmh SW 9.0 mph14.5 kmh 29.75 in1007.5 mb 0.00 in0.0 mm 0.00 in0.0 mm 0.00 in0.0 mm
06:50 PM 90.1°F32.3°C 53.0°F11.7°C 28% 4.1 mph WSW6.6 kmh WSW 10.0 mph16.1 kmh 29.74 in1007.1 mb 0.00 in0.0 mm 0.00 in0.0 mm 0.00 in0.0 mm
07:00 PM 89.8°F32.1°C 54.0°F12.2°C 29% 3.0 mph SW4.8 kmh SW 8.0 mph12.9 kmh 29.74 in1007.1 mb 0.00 in0.0 mm 0.00 in0.0 mm 0.00 in0.0 mm
07:10 PM 89.6°F32.0°C 54.0°F12.2°C 30% 4.1 mph SSW6.6 kmh SSW 11.0 mph17.7 kmh 29.74 in1007.1 mb 0.00 in0.0 mm 0.00 in0.0 mm 0.00 in0.0 mm
07:20 PM 89.3°F31.8°C 55.0°F12.8°C 31% 4.0 mph SW6.4 kmh SW 9.0 mph14.5 kmh 29.75 in1007.5 mb 0.00 in0.0 mm 0.00 in0.0 mm 0.00 in0.0 mm
07:30 PM 88.9°F31.6°C 55.0°F12.8°C 32% 3.5 mph SW5.6 kmh SW 9.0 mph14.5 kmh 29.75 in1007.5 mb 0.00 in0.0 mm 0.00 in0.0 mm 0.00 in0.0 mm
07:40 PM 88.7°F31.5°C 56.0°F13.3°C 33% 3.7 mph S6.0 kmh S 9.0 mph14.5 kmh 29.76 in1007.8 mb 0.00 in0.0 mm 0.00 in0.0 mm 0.00 in0.0 mm
07:50 PM 88.3°F31.3°C 53.0°F11.7°C 30% 4.8 mph S7.7 kmh S 12.0 mph19.3 kmh 29.76 in1007.8 mb 0.00 in0.0 mm 0.00 in0.0 mm 0.00 in0.0 mm
08:00 PM 87.8°F31.0°C 52.0°F11.1°C 29% 3.1 mph SW5.0 kmh SW 9.0 mph14.5 kmh 29.77 in1008.1 mb 0.00 in0.0 mm 0.00 in0.0 mm 0.00 in0.0 mm
08:10 PM 87.5°F30.8°C 50.0°F10.0°C 27% 5.4 mph SSW8.7 kmh SSW 12.0 mph19.3 kmh 29.77 in1008.1 mb 0.00 in0.0 mm 0.00 in0.0 mm 0.00 in0.0 mm
08:20 PM 87.2°F30.7°C 49.0°F9.4°C 27% 3.6 mph SW5.8 kmh SW 10.0 mph16.1 kmh 29.78 in1008.5 mb 0.00 in0.0 mm 0.00 in0.0 mm 0.00 in0.0 mm
08:30 PM 86.7°F30.4°C 48.0°F8.9°C 26% 3.7 mph SSE6.0 kmh SSE 11.0 mph17.7 kmh 29.78 in1008.5 mb 0.00 in0.0 mm 0.00 in0.0 mm 0.00 in0.0 mm
08:40 PM 86.3°F30.2°C 49.0°F9.4°C 27% 2.2 mph WSW3.5 kmh WSW 8.0 mph12.9 kmh 29.79 in1008.8 mb 0.00 in0.0 mm 0.00 in0.0 mm 0.00 in0.0 mm
08:50 PM 86.0°F30.0°C 48.0°F8.9°C 27% 3.1 mph SE5.0 kmh SE 9.0 mph14.5 kmh 29.79 in1008.8 mb 0.00 in0.0 mm 0.00 in0.0 mm 0.00 in0.0 mm
09:00 PM 85.7°F29.8°C 49.0°F9.4°C 28% 3.6 mph WSW5.8 kmh WSW 9.0 mph14.5 kmh 29.80 in1009.1 mb 0.00 in0.0 mm 0.00 in0.0 mm 0.00 in0.0 mm
09:10 PM 85.4°F29.7°C 51.0°F10.6°C 30% 1.5 mph S2.4 kmh S 4.0 mph6.4 kmh 29.80 in1009.1 mb 0.00 in0.0 mm 0.00 in0.0 mm 0.00 in0.0 mm
09:20 PM 84.9°F29.4°C 51.0°F10.6°C 31% 1.9 mph NW3.1 kmh NW 5.0 mph8.0 kmh 29.81 in1009.5 mb 0.00 in0.0 mm 0.00 in0.0 mm 0.00 in0.0 mm
09:30 PM 84.6°F29.2°C 52.0°F11.1°C 33% 2.1 mph WSW3.4 kmh WSW 9.0 mph14.5 kmh 29.81 in1009.5 mb 0.00 in0.0 mm 0.00 in0.0 mm 0.00 in0.0 mm
09:40 PM 84.3°F29.1°C 55.0°F12.8°C 36% 1.9 mph SSW3.1 kmh SSW 5.0 mph8.0 kmh 29.81 in1009.5 mb 0.00 in0.0 mm 0.00 in0.0 mm 0.00 in0.0 mm
09:50 PM 84.0°F28.9°C 56.0°F13.3°C 38% 2.3 mph SW3.7 kmh SW 6.0 mph9.7 kmh 29.82 in1009.8 mb 0.00 in0.0 mm 0.00 in0.0 mm 0.00 in0.0 mm
10:00 PM 83.8°F28.8°C 56.0°F13.3°C 39% 1.7 mph W2.7 kmh W 4.0 mph6.4 kmh 29.82 in1009.8 mb 0.00 in0.0 mm 0.00 in0.0 mm 0.00 in0.0 mm
10:10 PM 83.6°F28.7°C 57.0°F13.9°C 40% 2.2 mph SSE3.5 kmh SSE 11.0 mph17.7 kmh 29.82 in1009.8 mb 0.00 in0.0 mm 0.00 in0.0 mm 0.00 in0.0 mm
10:20 PM 83.2°F28.4°C 57.0°F13.9°C 41% 2.1 mph SW3.4 kmh SW 8.0 mph12.9 kmh 29.82 in1009.8 mb 0.00 in0.0 mm 0.00 in0.0 mm 0.00 in0.0 mm
10:30 PM 82.8°F28.2°C 57.0°F13.9°C 42% 2.1 mph SW3.4 kmh SW 8.0 mph12.9 kmh 29.83 in1010.2 mb 0.00 in0.0 mm 0.00 in0.0 mm 0.00 in0.0 mm
10:40 PM 82.5°F28.1°C 58.0°F14.4°C 43% 1.7 mph SSE2.7 kmh SSE 9.0 mph14.5 kmh 29.83 in1010.2 mb 0.00 in0.0 mm 0.00 in0.0 mm 0.00 in0.0 mm
10:50 PM 82.0°F27.8°C 58.0°F14.4°C 44% 0.9 mph SW1.4 kmh SW 4.0 mph6.4 kmh 29.83 in1010.2 mb 0.00 in0.0 mm 0.00 in0.0 mm 0.00 in0.0 mm
11:00 PM 81.7°F27.6°C 58.0°F14.4°C 45% 1.3 mph SW2.1 kmh SW 5.0 mph8.0 kmh 29.83 in1010.2 mb 0.00 in0.0 mm 0.00 in0.0 mm 0.00 in0.0 mm
11:10 PM 81.5°F27.5°C 58.0°F14.4°C 45% 1.5 mph S2.4 kmh S 7.0 mph11.3 kmh 29.83 in1010.2 mb 0.00 in0.0 mm 0.00 in0.0 mm 0.00 in0.0 mm
11:20 PM 81.3°F27.4°C 58.0°F14.4°C 45% 2.4 mph S3.9 kmh S 6.0 mph9.7 kmh 29.84 in1010.5 mb 0.00 in0.0 mm 0.00 in0.0 mm 0.00 in0.0 mm
11:30 PM 81.1°F27.3°C 58.0°F14.4°C 46% 2.2 mph SW3.5 kmh SW 6.0 mph9.7 kmh 29.84 in1010.5 mb 0.00 in0.0 mm 0.00 in0.0 mm 0.00 in0.0 mm
11:40 PM 80.9°F27.2°C 58.0°F14.4°C 46% 1.0 mph W1.6 kmh W 4.0 mph6.4 kmh 29.84 in1010.5 mb 0.00 in0.0 mm 0.00 in0.0 mm 0.00 in0.0 mm
11:50 PM 80.6°F27.0°C 57.0°F13.9°C 45% 0.8 mph SW1.3 kmh SW 6.0 mph9.7 kmh 29.84 in1010.5 mb 0.00 in0.0 mm 0.00 in0.0 mm 0.00 in0.0 mm